sensor_id;sensor_type;location;lat;lon;timestamp;temperature;humidity
15156;DHT22;7678;50.058;8.306;2024-01-06T00:01:40;3.40;99.90
15156;DHT22;7678;50.058;8.306;2024-01-06T00:04:08;3.30;99.90
15156;DHT22;7678;50.058;8.306;2024-01-06T00:06:37;3.30;99.90
15156;DHT22;7678;50.058;8.306;2024-01-06T00:09:05;3.30;99.90
15156;DHT22;7678;50.058;8.306;2024-01-06T00:11:34;3.40;99.90
15156;DHT22;7678;50.058;8.306;2024-01-06T00:14:03;3.40;99.90
15156;DHT22;7678;50.058;8.306;2024-01-06T00:16:33;3.40;99.90
15156;DHT22;7678;50.058;8.306;2024-01-06T00:19:02;3.50;99.90
15156;DHT22;7678;50.058;8.306;2024-01-06T00:21:30;3.50;99.90
15156;DHT22;7678;50.058;8.306;2024-01-06T00:23:59;3.40;99.90
15156;DHT22;7678;50.058;8.306;2024-01-06T00:26:28;3.50;99.90
15156;DHT22;7678;50.058;8.306;2024-01-06T00:28:56;3.50;99.90
15156;DHT22;7678;50.058;8.306;2024-01-06T00:31:25;3.60;99.90
15156;DHT22;7678;50.058;8.306;2024-01-06T00:33:54;3.60;99.90
15156;DHT22;7678;50.058;8.306;2024-01-06T00:36:24;3.50;99.90
15156;DHT22;7678;50.058;8.306;2024-01-06T00:38:52;3.50;99.90
15156;DHT22;7678;50.058;8.306;2024-01-06T00:41:21;3.50;99.90
15156;DHT22;7678;50.058;8.306;2024-01-06T00:43:49;3.50;99.90
15156;DHT22;7678;50.058;8.306;2024-01-06T00:46:20;3.50;99.90
15156;DHT22;7678;50.058;8.306;2024-01-06T00:48:51;3.50;99.90
15156;DHT22;7678;50.058;8.306;2024-01-06T00:51:21;3.60;99.90
15156;DHT22;7678;50.058;8.306;2024-01-06T00:53:49;3.70;99.90
15156;DHT22;7678;50.058;8.306;2024-01-06T00:56:19;3.60;99.90
15156;DHT22;7678;50.058;8.306;2024-01-06T00:58:47;3.60;99.90
15156;DHT22;7678;50.058;8.306;2024-01-06T01:01:15;3.60;99.90
15156;DHT22;7678;50.058;8.306;2024-01-06T01:03:44;3.60;99.90
15156;DHT22;7678;50.058;8.306;2024-01-06T01:06:12;3.50;99.90
15156;DHT22;7678;50.058;8.306;2024-01-06T01:08:42;3.50;99.90
15156;DHT22;7678;50.058;8.306;2024-01-06T01:11:11;3.60;99.90
15156;DHT22;7678;50.058;8.306;2024-01-06T01:13:40;3.50;99.90
15156;DHT22;7678;50.058;8.306;2024-01-06T01:16:08;3.60;99.90
15156;DHT22;7678;50.058;8.306;2024-01-06T01:18:36;3.70;99.90
15156;DHT22;7678;50.058;8.306;2024-01-06T01:21:06;3.60;99.90
15156;DHT22;7678;50.058;8.306;2024-01-06T01:23:37;3.70;99.90
15156;DHT22;7678;50.058;8.306;2024-01-06T01:26:07;3.80;99.90
15156;DHT22;7678;50.058;8.306;2024-01-06T01:28:35;3.80;99.90
15156;DHT22;7678;50.058;8.306;2024-01-06T01:31:03;3.80;99.90
15156;DHT22;7678;50.058;8.306;2024-01-06T01:33:32;3.70;99.90
15156;DHT22;7678;50.058;8.306;2024-01-06T01:36:01;3.80;99.90
15156;DHT22;7678;50.058;8.306;2024-01-06T01:38:31;3.70;99.90
15156;DHT22;7678;50.058;8.306;2024-01-06T01:40:59;3.70;99.90
15156;DHT22;7678;50.058;8.306;2024-01-06T01:43:29;3.70;99.90
15156;DHT22;7678;50.058;8.306;2024-01-06T01:45:58;3.70;99.90
15156;DHT22;7678;50.058;8.306;2024-01-06T01:48:28;3.70;99.90
15156;DHT22;7678;50.058;8.306;2024-01-06T01:51:01;3.70;99.90
15156;DHT22;7678;50.058;8.306;2024-01-06T01:53:30;3.80;99.90
15156;DHT22;7678;50.058;8.306;2024-01-06T01:55:59;3.90;99.90
15156;DHT22;7678;50.058;8.306;2024-01-06T01:58:29;3.90;99.90
15156;DHT22;7678;50.058;8.306;2024-01-06T02:00:58;3.90;99.90
15156;DHT22;7678;50.058;8.306;2024-01-06T02:03:26;4.00;99.90
15156;DHT22;7678;50.058;8.306;2024-01-06T02:05:59;3.90;99.90
15156;DHT22;7678;50.058;8.306;2024-01-06T02:08:27;3.90;99.90
15156;DHT22;7678;50.058;8.306;2024-01-06T02:10:56;3.90;99.90
15156;DHT22;7678;50.058;8.306;2024-01-06T02:13:34;3.90;99.90
15156;DHT22;7678;50.058;8.306;2024-01-06T02:16:04;3.90;99.90
15156;DHT22;7678;50.058;8.306;2024-01-06T02:18:32;3.80;99.90
15156;DHT22;7678;50.058;8.306;2024-01-06T02:21:02;3.80;99.90
15156;DHT22;7678;50.058;8.306;2024-01-06T02:23:35;3.80;99.90
15156;DHT22;7678;50.058;8.306;2024-01-06T02:26:03;3.90;99.90
15156;DHT22;7678;50.058;8.306;2024-01-06T02:28:32;3.90;99.90
15156;DHT22;7678;50.058;8.306;2024-01-06T02:31:00;3.90;99.90
15156;DHT22;7678;50.058;8.306;2024-01-06T02:33:29;3.80;99.90
15156;DHT22;7678;50.058;8.306;2024-01-06T02:35:58;3.80;99.90
15156;DHT22;7678;50.058;8.306;2024-01-06T02:38:27;3.80;99.90
15156;DHT22;7678;50.058;8.306;2024-01-06T02:40:56;3.80;99.90
15156;DHT22;7678;50.058;8.306;2024-01-06T02:43:25;3.70;99.90
15156;DHT22;7678;50.058;8.306;2024-01-06T02:45:53;3.70;99.90
15156;DHT22;7678;50.058;8.306;2024-01-06T02:48:21;3.80;99.90
15156;DHT22;7678;50.058;8.306;2024-01-06T02:50:50;3.80;99.90
15156;DHT22;7678;50.058;8.306;2024-01-06T02:53:19;3.90;99.90
15156;DHT22;7678;50.058;8.306;2024-01-06T02:55:49;3.90;99.90
15156;DHT22;7678;50.058;8.306;2024-01-06T02:58:19;4.00;99.90
15156;DHT22;7678;50.058;8.306;2024-01-06T03:00:47;4.00;99.90
15156;DHT22;7678;50.058;8.306;2024-01-06T03:03:16;4.00;99.90
15156;DHT22;7678;50.058;8.306;2024-01-06T03:05:45;4.00;99.90
15156;DHT22;7678;50.058;8.306;2024-01-06T03:08:16;4.00;99.90
15156;DHT22;7678;50.058;8.306;2024-01-06T03:10:44;4.00;99.90
15156;DHT22;7678;50.058;8.306;2024-01-06T03:13:13;4.00;99.90
15156;DHT22;7678;50.058;8.306;2024-01-06T03:15:43;4.10;99.90
15156;DHT22;7678;50.058;8.306;2024-01-06T03:18:12;4.10;99.90
15156;DHT22;7678;50.058;8.306;2024-01-06T03:20:47;4.10;99.90
15156;DHT22;7678;50.058;8.306;2024-01-06T03:23:15;4.00;99.90
15156;DHT22;7678;50.058;8.306;2024-01-06T03:25:44;4.00;99.90
15156;DHT22;7678;50.058;8.306;2024-01-06T03:28:12;4.00;99.90
15156;DHT22;7678;50.058;8.306;2024-01-06T03:30:47;3.90;99.90
15156;DHT22;7678;50.058;8.306;2024-01-06T03:33:19;4.00;99.90
15156;DHT22;7678;50.058;8.306;2024-01-06T03:35:50;4.00;99.90
15156;DHT22;7678;50.058;8.306;2024-01-06T03:38:19;4.00;99.90
15156;DHT22;7678;50.058;8.306;2024-01-06T03:40:50;4.00;99.90
15156;DHT22;7678;50.058;8.306;2024-01-06T03:43:19;4.10;99.90
15156;DHT22;7678;50.058;8.306;2024-01-06T03:45:49;4.10;99.90
15156;DHT22;7678;50.058;8.306;2024-01-06T03:48:17;4.10;99.90
15156;DHT22;7678;50.058;8.306;2024-01-06T03:50:46;4.10;99.90
15156;DHT22;7678;50.058;8.306;2024-01-06T03:53:15;4.20;99.90
15156;DHT22;7678;50.058;8.306;2024-01-06T03:55:43;4.20;99.90
15156;DHT22;7678;50.058;8.306;2024-01-06T03:58:12;4.30;99.90
15156;DHT22;7678;50.058;8.306;2024-01-06T04:00:40;4.30;99.90
15156;DHT22;7678;50.058;8.306;2024-01-06T04:03:10;4.30;99.90
15156;DHT22;7678;50.058;8.306;2024-01-06T04:05:38;4.30;99.90
15156;DHT22;7678;50.058;8.306;2024-01-06T04:08:07;4.30;99.90
15156;DHT22;7678;50.058;8.306;2024-01-06T04:10:36;4.30;99.90
15156;DHT22;7678;50.058;8.306;2024-01-06T04:13:04;4.40;99.90
15156;DHT22;7678;50.058;8.306;2024-01-06T04:15:32;4.30;99.90
15156;DHT22;7678;50.058;8.306;2024-01-06T04:18:02;4.40;99.90
15156;DHT22;7678;50.058;8.306;2024-01-06T04:20:33;4.30;99.90
15156;DHT22;7678;50.058;8.306;2024-01-06T04:23:01;4.30;99.90
15156;DHT22;7678;50.058;8.306;2024-01-06T04:25:31;4.40;99.90
15156;DHT22;7678;50.058;8.306;2024-01-06T04:27:59;4.40;99.90
15156;DHT22;7678;50.058;8.306;2024-01-06T04:30:27;4.30;99.90
15156;DHT22;7678;50.058;8.306;2024-01-06T04:32:56;4.30;99.90
15156;DHT22;7678;50.058;8.306;2024-01-06T04:35:25;4.20;99.90
15156;DHT22;7678;50.058;8.306;2024-01-06T04:37:55;4.20;99.90
15156;DHT22;7678;50.058;8.306;2024-01-06T04:40:24;4.20;99.90
15156;DHT22;7678;50.058;8.306;2024-01-06T04:42:53;4.20;99.90
15156;DHT22;7678;50.058;8.306;2024-01-06T04:45:22;4.20;99.90
15156;DHT22;7678;50.058;8.306;2024-01-06T04:47:51;4.10;99.90
15156;DHT22;7678;50.058;8.306;2024-01-06T04:50:23;4.20;99.90
15156;DHT22;7678;50.058;8.306;2024-01-06T04:52:51;4.20;99.90
15156;DHT22;7678;50.058;8.306;2024-01-06T04:55:23;4.10;99.90
15156;DHT22;7678;50.058;8.306;2024-01-06T04:57:51;4.10;99.90
15156;DHT22;7678;50.058;8.306;2024-01-06T05:00:20;4.10;99.90
15156;DHT22;7678;50.058;8.306;2024-01-06T05:02:48;4.10;99.90
15156;DHT22;7678;50.058;8.306;2024-01-06T05:05:17;4.10;99.90
15156;DHT22;7678;50.058;8.306;2024-01-06T05:07:45;4.10;99.90
15156;DHT22;7678;50.058;8.306;2024-01-06T05:10:14;4.20;99.90
15156;DHT22;7678;50.058;8.306;2024-01-06T05:12:44;4.20;99.90
15156;DHT22;7678;50.058;8.306;2024-01-06T05:15:12;4.20;99.90
15156;DHT22;7678;50.058;8.306;2024-01-06T05:17:42;4.20;99.90
15156;DHT22;7678;50.058;8.306;2024-01-06T05:20:10;4.30;99.90
15156;DHT22;7678;50.058;8.306;2024-01-06T05:22:41;4.30;99.90
15156;DHT22;7678;50.058;8.306;2024-01-06T05:25:09;4.30;99.90
15156;DHT22;7678;50.058;8.306;2024-01-06T05:27:38;4.30;99.90
15156;DHT22;7678;50.058;8.306;2024-01-06T05:30:10;4.30;99.90
15156;DHT22;7678;50.058;8.306;2024-01-06T05:32:40;4.30;99.90
15156;DHT22;7678;50.058;8.306;2024-01-06T05:35:08;4.30;99.90
15156;DHT22;7678;50.058;8.306;2024-01-06T05:37:36;4.30;99.90
15156;DHT22;7678;50.058;8.306;2024-01-06T05:40:07;4.20;99.90
15156;DHT22;7678;50.058;8.306;2024-01-06T05:42:36;4.20;99.90
15156;DHT22;7678;50.058;8.306;2024-01-06T05:45:09;4.30;99.90
15156;DHT22;7678;50.058;8.306;2024-01-06T05:47:40;4.30;99.90
15156;DHT22;7678;50.058;8.306;2024-01-06T05:50:10;4.30;99.90
15156;DHT22;7678;50.058;8.306;2024-01-06T05:52:39;4.30;99.90
15156;DHT22;7678;50.058;8.306;2024-01-06T05:55:08;4.30;99.90
15156;DHT22;7678;50.058;8.306;2024-01-06T05:57:39;4.40;99.90
15156;DHT22;7678;50.058;8.306;2024-01-06T06:00:09;4.40;99.90
15156;DHT22;7678;50.058;8.306;2024-01-06T06:02:37;4.40;99.90
15156;DHT22;7678;50.058;8.306;2024-01-06T06:05:08;4.40;99.90
15156;DHT22;7678;50.058;8.306;2024-01-06T06:07:37;4.50;99.90
15156;DHT22;7678;50.058;8.306;2024-01-06T06:10:08;4.40;99.90
15156;DHT22;7678;50.058;8.306;2024-01-06T06:12:37;4.50;99.90
15156;DHT22;7678;50.058;8.306;2024-01-06T06:15:06;4.40;99.90
15156;DHT22;7678;50.058;8.306;2024-01-06T06:17:35;4.40;99.90
15156;DHT22;7678;50.058;8.306;2024-01-06T06:20:04;4.50;99.90
15156;DHT22;7678;50.058;8.306;2024-01-06T06:22:34;4.50;99.90
15156;DHT22;7678;50.058;8.306;2024-01-06T06:25:03;4.50;99.90
15156;DHT22;7678;50.058;8.306;2024-01-06T06:27:32;4.40;99.90
15156;DHT22;7678;50.058;8.306;2024-01-06T06:30:01;4.40;99.90
15156;DHT22;7678;50.058;8.306;2024-01-06T06:32:30;4.50;99.90
15156;DHT22;7678;50.058;8.306;2024-01-06T06:34:59;4.40;99.90
15156;DHT22;7678;50.058;8.306;2024-01-06T06:37:27;4.40;99.90
15156;DHT22;7678;50.058;8.306;2024-01-06T06:39:57;4.30;99.90
15156;DHT22;7678;50.058;8.306;2024-01-06T06:42:26;4.30;99.90
15156;DHT22;7678;50.058;8.306;2024-01-06T06:44:54;4.30;99.90
15156;DHT22;7678;50.058;8.306;2024-01-06T06:47:24;4.30;99.90
15156;DHT22;7678;50.058;8.306;2024-01-06T06:49:52;4.30;99.90
15156;DHT22;7678;50.058;8.306;2024-01-06T06:52:21;4.30;99.90
15156;DHT22;7678;50.058;8.306;2024-01-06T06:54:49;4.30;99.90
15156;DHT22;7678;50.058;8.306;2024-01-06T06:57:20;4.30;99.90
15156;DHT22;7678;50.058;8.306;2024-01-06T06:59:49;4.30;99.90
15156;DHT22;7678;50.058;8.306;2024-01-06T07:02:17;4.40;99.90
15156;DHT22;7678;50.058;8.306;2024-01-06T07:04:46;4.30;99.90
15156;DHT22;7678;50.058;8.306;2024-01-06T07:07:14;4.30;99.90
15156;DHT22;7678;50.058;8.306;2024-01-06T07:09:42;4.30;99.90
15156;DHT22;7678;50.058;8.306;2024-01-06T07:12:11;4.30;99.90
15156;DHT22;7678;50.058;8.306;2024-01-06T07:14:43;4.30;99.90
15156;DHT22;7678;50.058;8.306;2024-01-06T07:17:12;4.30;99.90
15156;DHT22;7678;50.058;8.306;2024-01-06T07:19:40;4.40;99.90
15156;DHT22;7678;50.058;8.306;2024-01-06T07:22:09;4.40;99.90
15156;DHT22;7678;50.058;8.306;2024-01-06T07:24:38;4.30;99.90
15156;DHT22;7678;50.058;8.306;2024-01-06T07:27:06;4.30;99.90
15156;DHT22;7678;50.058;8.306;2024-01-06T07:29:34;4.30;99.90
15156;DHT22;7678;50.058;8.306;2024-01-06T07:32:05;4.30;99.90
15156;DHT22;7678;50.058;8.306;2024-01-06T07:34:34;4.30;99.90
15156;DHT22;7678;50.058;8.306;2024-01-06T07:37:03;4.30;99.90
15156;DHT22;7678;50.058;8.306;2024-01-06T07:39:31;4.30;99.90
15156;DHT22;7678;50.058;8.306;2024-01-06T07:42:00;4.30;99.90
15156;DHT22;7678;50.058;8.306;2024-01-06T07:44:29;4.20;99.90
15156;DHT22;7678;50.058;8.306;2024-01-06T07:46:58;4.20;99.90
15156;DHT22;7678;50.058;8.306;2024-01-06T07:49:27;4.20;99.90
15156;DHT22;7678;50.058;8.306;2024-01-06T07:51:56;4.20;99.90
15156;DHT22;7678;50.058;8.306;2024-01-06T07:54:24;4.30;99.90
15156;DHT22;7678;50.058;8.306;2024-01-06T07:56:52;4.30;99.90
15156;DHT22;7678;50.058;8.306;2024-01-06T07:59:24;4.20;99.90
15156;DHT22;7678;50.058;8.306;2024-01-06T08:01:52;4.20;99.90
15156;DHT22;7678;50.058;8.306;2024-01-06T08:04:21;4.20;99.90
15156;DHT22;7678;50.058;8.306;2024-01-06T08:06:51;4.20;99.90
15156;DHT22;7678;50.058;8.306;2024-01-06T08:09:22;4.30;99.90
15156;DHT22;7678;50.058;8.306;2024-01-06T08:11:50;4.40;99.90
15156;DHT22;7678;50.058;8.306;2024-01-06T08:14:19;4.40;99.90
15156;DHT22;7678;50.058;8.306;2024-01-06T08:16:48;4.50;99.90
15156;DHT22;7678;50.058;8.306;2024-01-06T08:19:16;4.40;99.90
15156;DHT22;7678;50.058;8.306;2024-01-06T08:21:44;4.40;99.90
15156;DHT22;7678;50.058;8.306;2024-01-06T08:24:15;4.50;99.90
15156;DHT22;7678;50.058;8.306;2024-01-06T08:26:44;4.50;99.90
15156;DHT22;7678;50.058;8.306;2024-01-06T08:29:13;4.60;99.90
15156;DHT22;7678;50.058;8.306;2024-01-06T08:31:43;4.50;99.90
15156;DHT22;7678;50.058;8.306;2024-01-06T08:34:11;4.60;99.90
15156;DHT22;7678;50.058;8.306;2024-01-06T08:36:41;4.60;99.90
15156;DHT22;7678;50.058;8.306;2024-01-06T08:39:09;4.70;99.90
15156;DHT22;7678;50.058;8.306;2024-01-06T08:41:40;4.70;99.90
15156;DHT22;7678;50.058;8.306;2024-01-06T08:44:08;4.70;99.90
15156;DHT22;7678;50.058;8.306;2024-01-06T08:46:36;4.70;99.90
15156;DHT22;7678;50.058;8.306;2024-01-06T08:49:04;4.70;99.90
15156;DHT22;7678;50.058;8.306;2024-01-06T08:51:33;4.70;99.90
15156;DHT22;7678;50.058;8.306;2024-01-06T08:54:02;4.70;99.90
15156;DHT22;7678;50.058;8.306;2024-01-06T08:56:33;4.70;99.90
15156;DHT22;7678;50.058;8.306;2024-01-06T08:59:06;4.80;99.90
15156;DHT22;7678;50.058;8.306;2024-01-06T09:01:34;4.80;99.90
15156;DHT22;7678;50.058;8.306;2024-01-06T09:04:03;4.90;99.90
15156;DHT22;7678;50.058;8.306;2024-01-06T09:06:34;4.90;99.90
15156;DHT22;7678;50.058;8.306;2024-01-06T09:09:02;4.90;99.90
15156;DHT22;7678;50.058;8.306;2024-01-06T09:11:30;5.00;99.90
15156;DHT22;7678;50.058;8.306;2024-01-06T09:13:58;5.10;99.90
15156;DHT22;7678;50.058;8.306;2024-01-06T09:16:29;5.10;99.90
15156;DHT22;7678;50.058;8.306;2024-01-06T09:18:57;5.10;99.90
15156;DHT22;7678;50.058;8.306;2024-01-06T09:21:26;5.10;99.90
15156;DHT22;7678;50.058;8.306;2024-01-06T09:23:54;5.10;99.90
15156;DHT22;7678;50.058;8.306;2024-01-06T09:26:23;5.20;99.90
15156;DHT22;7678;50.058;8.306;2024-01-06T09:28:52;5.20;99.90
15156;DHT22;7678;50.058;8.306;2024-01-06T09:31:20;5.20;99.90
15156;DHT22;7678;50.058;8.306;2024-01-06T09:33:50;5.20;99.90
15156;DHT22;7678;50.058;8.306;2024-01-06T09:36:18;5.30;99.90
15156;DHT22;7678;50.058;8.306;2024-01-06T09:38:47;5.20;99.90
15156;DHT22;7678;50.058;8.306;2024-01-06T09:41:15;5.20;99.90
15156;DHT22;7678;50.058;8.306;2024-01-06T09:43:44;5.20;99.90
15156;DHT22;7678;50.058;8.306;2024-01-06T09:46:17;5.30;99.90
15156;DHT22;7678;50.058;8.306;2024-01-06T09:48:52;5.30;99.90
15156;DHT22;7678;50.058;8.306;2024-01-06T09:51:22;5.20;99.90
15156;DHT22;7678;50.058;8.306;2024-01-06T09:53:57;5.20;99.90
15156;DHT22;7678;50.058;8.306;2024-01-06T09:56:28;5.20;99.90
15156;DHT22;7678;50.058;8.306;2024-01-06T09:58:56;5.20;99.90
15156;DHT22;7678;50.058;8.306;2024-01-06T10:01:27;5.30;99.90
15156;DHT22;7678;50.058;8.306;2024-01-06T10:04:00;5.30;99.90
15156;DHT22;7678;50.058;8.306;2024-01-06T10:06:31;5.30;99.90
15156;DHT22;7678;50.058;8.306;2024-01-06T10:09:00;5.30;99.90
15156;DHT22;7678;50.058;8.306;2024-01-06T10:11:28;5.40;99.90
15156;DHT22;7678;50.058;8.306;2024-01-06T10:13:57;5.50;99.90
15156;DHT22;7678;50.058;8.306;2024-01-06T10:16:25;5.60;99.90
15156;DHT22;7678;50.058;8.306;2024-01-06T10:18:53;5.60;99.90
15156;DHT22;7678;50.058;8.306;2024-01-06T10:21:25;5.60;99.90
15156;DHT22;7678;50.058;8.306;2024-01-06T10:23:54;5.50;99.90
15156;DHT22;7678;50.058;8.306;2024-01-06T10:26:22;5.60;99.90
15156;DHT22;7678;50.058;8.306;2024-01-06T10:28:50;5.60;99.90
15156;DHT22;7678;50.058;8.306;2024-01-06T10:31:19;5.70;99.90
15156;DHT22;7678;50.058;8.306;2024-01-06T10:33:47;5.70;99.90
15156;DHT22;7678;50.058;8.306;2024-01-06T10:36:16;5.70;99.90
15156;DHT22;7678;50.058;8.306;2024-01-06T10:38:46;5.80;99.90
15156;DHT22;7678;50.058;8.306;2024-01-06T10:41:17;5.80;99.90
15156;DHT22;7678;50.058;8.306;2024-01-06T10:43:46;5.80;99.90
15156;DHT22;7678;50.058;8.306;2024-01-06T10:46:15;5.80;99.90
15156;DHT22;7678;50.058;8.306;2024-01-06T10:48:46;5.90;99.90
15156;DHT22;7678;50.058;8.306;2024-01-06T10:51:15;6.00;99.90
15156;DHT22;7678;50.058;8.306;2024-01-06T10:53:47;6.10;99.90
15156;DHT22;7678;50.058;8.306;2024-01-06T10:56:17;6.10;99.90
15156;DHT22;7678;50.058;8.306;2024-01-06T10:58:46;6.00;99.90
15156;DHT22;7678;50.058;8.306;2024-01-06T11:01:21;5.90;99.90
15156;DHT22;7678;50.058;8.306;2024-01-06T11:03:55;5.90;99.90
15156;DHT22;7678;50.058;8.306;2024-01-06T11:06:26;5.90;99.90
15156;DHT22;7678;50.058;8.306;2024-01-06T11:09:01;6.00;99.90
15156;DHT22;7678;50.058;8.306;2024-01-06T11:11:30;6.00;99.90
15156;DHT22;7678;50.058;8.306;2024-01-06T11:14:17;6.00;99.90
15156;DHT22;7678;50.058;8.306;2024-01-06T11:16:45;6.10;99.90
15156;DHT22;7678;50.058;8.306;2024-01-06T11:19:42;6.20;99.90
15156;DHT22;7678;50.058;8.306;2024-01-06T11:22:19;6.20;99.90
15156;DHT22;7678;50.058;8.306;2024-01-06T11:24:50;6.20;99.90
15156;DHT22;7678;50.058;8.306;2024-01-06T11:27:19;6.20;99.90
15156;DHT22;7678;50.058;8.306;2024-01-06T11:29:51;6.10;99.90
15156;DHT22;7678;50.058;8.306;2024-01-06T11:32:26;6.10;99.90
15156;DHT22;7678;50.058;8.306;2024-01-06T11:35:05;6.20;99.90
15156;DHT22;7678;50.058;8.306;2024-01-06T11:37:39;6.30;99.90
15156;DHT22;7678;50.058;8.306;2024-01-06T11:40:25;6.20;99.90
15156;DHT22;7678;50.058;8.306;2024-01-06T11:42:58;6.30;99.90
15156;DHT22;7678;50.058;8.306;2024-01-06T11:45:27;6.30;99.90
15156;DHT22;7678;50.058;8.306;2024-01-06T11:47:57;6.40;99.90
15156;DHT22;7678;50.058;8.306;2024-01-06T11:50:28;6.50;99.90
15156;DHT22;7678;50.058;8.306;2024-01-06T11:52:57;6.50;99.90
15156;DHT22;7678;50.058;8.306;2024-01-06T11:55:28;6.60;99.90
15156;DHT22;7678;50.058;8.306;2024-01-06T11:58:00;6.60;99.90
15156;DHT22;7678;50.058;8.306;2024-01-06T12:00:29;6.60;99.90
15156;DHT22;7678;50.058;8.306;2024-01-06T12:02:58;6.50;99.90
15156;DHT22;7678;50.058;8.306;2024-01-06T12:05:28;6.60;99.90
15156;DHT22;7678;50.058;8.306;2024-01-06T12:07:57;6.50;99.90
15156;DHT22;7678;50.058;8.306;2024-01-06T12:10:28;6.50;99.90
15156;DHT22;7678;50.058;8.306;2024-01-06T12:12:59;6.50;99.90
15156;DHT22;7678;50.058;8.306;2024-01-06T12:15:29;6.40;99.90
15156;DHT22;7678;50.058;8.306;2024-01-06T12:17:58;6.50;99.90
15156;DHT22;7678;50.058;8.306;2024-01-06T12:20:27;6.50;99.90
15156;DHT22;7678;50.058;8.306;2024-01-06T12:22:56;6.50;99.90
15156;DHT22;7678;50.058;8.306;2024-01-06T12:25:27;6.40;99.90
15156;DHT22;7678;50.058;8.306;2024-01-06T12:28:05;6.40;99.90
15156;DHT22;7678;50.058;8.306;2024-01-06T12:30:34;6.50;99.90
15156;DHT22;7678;50.058;8.306;2024-01-06T12:33:06;6.50;99.90
15156;DHT22;7678;50.058;8.306;2024-01-06T12:35:37;6.50;99.90
15156;DHT22;7678;50.058;8.306;2024-01-06T12:38:05;6.50;99.90
15156;DHT22;7678;50.058;8.306;2024-01-06T12:40:38;6.50;99.90
15156;DHT22;7678;50.058;8.306;2024-01-06T12:43:07;6.50;99.90
15156;DHT22;7678;50.058;8.306;2024-01-06T12:45:36;6.60;99.90
15156;DHT22;7678;50.058;8.306;2024-01-06T12:48:05;6.70;99.90
15156;DHT22;7678;50.058;8.306;2024-01-06T12:50:34;6.70;99.90
15156;DHT22;7678;50.058;8.306;2024-01-06T12:53:03;6.60;99.90
15156;DHT22;7678;50.058;8.306;2024-01-06T12:55:31;6.60;99.90
15156;DHT22;7678;50.058;8.306;2024-01-06T12:58:05;6.50;99.90
15156;DHT22;7678;50.058;8.306;2024-01-06T13:00:38;6.50;99.90
15156;DHT22;7678;50.058;8.306;2024-01-06T13:03:06;6.50;99.90
15156;DHT22;7678;50.058;8.306;2024-01-06T13:05:36;6.50;99.90
15156;DHT22;7678;50.058;8.306;2024-01-06T13:08:05;6.40;99.90
15156;DHT22;7678;50.058;8.306;2024-01-06T13:10:34;6.40;99.90
15156;DHT22;7678;50.058;8.306;2024-01-06T13:13:11;6.40;99.90
15156;DHT22;7678;50.058;8.306;2024-01-06T13:15:41;6.40;99.90
15156;DHT22;7678;50.058;8.306;2024-01-06T13:18:09;6.20;99.90
15156;DHT22;7678;50.058;8.306;2024-01-06T13:20:42;6.20;99.90
15156;DHT22;7678;50.058;8.306;2024-01-06T13:23:11;6.10;99.90
15156;DHT22;7678;50.058;8.306;2024-01-06T13:25:42;6.10;99.90
15156;DHT22;7678;50.058;8.306;2024-01-06T13:28:30;6.20;99.90
15156;DHT22;7678;50.058;8.306;2024-01-06T13:31:01;6.20;99.90
15156;DHT22;7678;50.058;8.306;2024-01-06T13:33:32;6.10;99.90
15156;DHT22;7678;50.058;8.306;2024-01-06T13:36:01;6.10;99.90
15156;DHT22;7678;50.058;8.306;2024-01-06T13:38:31;6.20;99.90
15156;DHT22;7678;50.058;8.306;2024-01-06T13:41:06;6.10;99.90
15156;DHT22;7678;50.058;8.306;2024-01-06T13:43:36;6.10;99.90
15156;DHT22;7678;50.058;8.306;2024-01-06T13:46:04;6.10;99.90
15156;DHT22;7678;50.058;8.306;2024-01-06T13:48:50;6.20;99.90
15156;DHT22;7678;50.058;8.306;2024-01-06T13:51:20;6.10;99.90
15156;DHT22;7678;50.058;8.306;2024-01-06T13:53:50;6.10;99.90
15156;DHT22;7678;50.058;8.306;2024-01-06T13:56:24;6.10;99.90
15156;DHT22;7678;50.058;8.306;2024-01-06T13:58:56;6.10;99.90
15156;DHT22;7678;50.058;8.306;2024-01-06T14:01:25;6.10;99.90
15156;DHT22;7678;50.058;8.306;2024-01-06T14:03:54;6.10;99.90
15156;DHT22;7678;50.058;8.306;2024-01-06T14:06:29;6.10;99.90
15156;DHT22;7678;50.058;8.306;2024-01-06T14:09:00;6.10;99.90
15156;DHT22;7678;50.058;8.306;2024-01-06T14:11:29;6.10;99.90
15156;DHT22;7678;50.058;8.306;2024-01-06T14:14:02;6.10;99.90
15156;DHT22;7678;50.058;8.306;2024-01-06T14:16:34;6.10;99.90
15156;DHT22;7678;50.058;8.306;2024-01-06T14:19:03;6.10;99.90
15156;DHT22;7678;50.058;8.306;2024-01-06T14:21:32;6.00;99.90
15156;DHT22;7678;50.058;8.306;2024-01-06T14:24:03;6.00;99.90
15156;DHT22;7678;50.058;8.306;2024-01-06T14:26:34;6.00;99.90
15156;DHT22;7678;50.058;8.306;2024-01-06T14:29:09;5.80;99.90
15156;DHT22;7678;50.058;8.306;2024-01-06T14:31:45;5.70;99.90
15156;DHT22;7678;50.058;8.306;2024-01-06T14:34:24;5.70;99.90
15156;DHT22;7678;50.058;8.306;2024-01-06T14:37:01;5.70;99.90
15156;DHT22;7678;50.058;8.306;2024-01-06T14:39:35;5.70;99.90
15156;DHT22;7678;50.058;8.306;2024-01-06T14:42:04;5.70;99.90
15156;DHT22;7678;50.058;8.306;2024-01-06T14:44:34;5.70;99.90
15156;DHT22;7678;50.058;8.306;2024-01-06T14:47:02;5.80;99.90
15156;DHT22;7678;50.058;8.306;2024-01-06T14:49:30;5.80;99.90
15156;DHT22;7678;50.058;8.306;2024-01-06T14:51:59;5.80;99.90
15156;DHT22;7678;50.058;8.306;2024-01-06T14:54:29;5.80;99.90
15156;DHT22;7678;50.058;8.306;2024-01-06T14:57:03;5.80;99.90
15156;DHT22;7678;50.058;8.306;2024-01-06T14:59:31;5.80;99.90
15156;DHT22;7678;50.058;8.306;2024-01-06T15:02:10;5.80;99.90
15156;DHT22;7678;50.058;8.306;2024-01-06T15:04:40;5.80;99.90
15156;DHT22;7678;50.058;8.306;2024-01-06T15:07:08;5.80;99.90
15156;DHT22;7678;50.058;8.306;2024-01-06T15:09:38;5.80;99.90
15156;DHT22;7678;50.058;8.306;2024-01-06T15:12:07;5.80;99.90
15156;DHT22;7678;50.058;8.306;2024-01-06T15:14:35;5.80;99.90
15156;DHT22;7678;50.058;8.306;2024-01-06T15:17:04;5.70;99.90
15156;DHT22;7678;50.058;8.306;2024-01-06T15:19:33;5.70;99.90
15156;DHT22;7678;50.058;8.306;2024-01-06T15:22:03;5.70;99.90
15156;DHT22;7678;50.058;8.306;2024-01-06T15:24:31;5.60;99.90
15156;DHT22;7678;50.058;8.306;2024-01-06T15:26:59;5.60;99.90
15156;DHT22;7678;50.058;8.306;2024-01-06T15:29:27;5.50;99.90
15156;DHT22;7678;50.058;8.306;2024-01-06T15:31:55;5.50;99.90
15156;DHT22;7678;50.058;8.306;2024-01-06T15:34:24;5.50;99.90
15156;DHT22;7678;50.058;8.306;2024-01-06T15:36:55;5.40;99.90
15156;DHT22;7678;50.058;8.306;2024-01-06T15:39:23;5.40;99.90
15156;DHT22;7678;50.058;8.306;2024-01-06T15:41:52;5.40;99.90
15156;DHT22;7678;50.058;8.306;2024-01-06T15:44:20;5.30;99.90
15156;DHT22;7678;50.058;8.306;2024-01-06T15:46:48;5.40;99.90
15156;DHT22;7678;50.058;8.306;2024-01-06T15:49:17;5.30;99.90
15156;DHT22;7678;50.058;8.306;2024-01-06T15:51:45;5.30;99.90
15156;DHT22;7678;50.058;8.306;2024-01-06T15:54:15;5.30;99.90
15156;DHT22;7678;50.058;8.306;2024-01-06T15:56:44;5.30;99.90
15156;DHT22;7678;50.058;8.306;2024-01-06T15:59:12;5.30;99.90
15156;DHT22;7678;50.058;8.306;2024-01-06T16:01:40;5.30;99.90
15156;DHT22;7678;50.058;8.306;2024-01-06T16:04:09;5.30;99.90
15156;DHT22;7678;50.058;8.306;2024-01-06T16:06:37;5.30;99.90
15156;DHT22;7678;50.058;8.306;2024-01-06T16:09:07;5.30;99.90
15156;DHT22;7678;50.058;8.306;2024-01-06T16:11:39;5.30;99.90
15156;DHT22;7678;50.058;8.306;2024-01-06T16:14:08;5.30;99.90
15156;DHT22;7678;50.058;8.306;2024-01-06T16:16:36;5.30;99.90
15156;DHT22;7678;50.058;8.306;2024-01-06T16:19:04;5.30;99.90